Impacts METAR Board
IDs:

KDEN - Denver Intl, CO, US

Updated at: 1500 UTC 20 Aug 2019
Potential Impact None Slight Moderate High
Time 20/03Z 20/04Z 20/05Z 20/06Z 20/07Z 20/08Z 20/09Z 20/10Z 20/11Z 20/12Z 20/13Z 20/14Z 20/15Z
Temp78 77 71 73 73 70 68 67 65 64 66 73 80
Dewpt35 39 42 43 41 41 43 48 50 45 42 40 43
Altim30.08 30.09 30.09 30.10 30.11 30.11 30.12 30.13 30.13 30.14 30.15 30.16 30.17
VIS10 10 10 10 10 10 10 10 10 10 10 10 10
CIG160 -- -- -- -- -- -- -- -- -- 220 -- --
CoverBKNSCTFEWSCTFEWFEWFEWFEWSCTSCTBKNSCTSCT
FltCatVFRVFRVFRVFRVFRVFRVFRVFRVFRVFRVFRVFRVFR
WX--------------------------
WDir70110140210250250240270240240240230230
WSpd4 10 8 11 9 6 5 8 7 7 6 6 6
WGst-- -- -- -- -- -- -- -- -- -- -- -- --
Raw hourly METARs
KDEN 200253Z 07004KT 10SM FEW120 BKN160 26/02 A3008 RMK AO2 SLP095 T02560017 53007
KDEN 200353Z 11010KT 10SM FEW120 SCT160 25/04 A3009 RMK AO2 SLP094 T02500039
KDEN 200453Z 14008KT 10SM FEW120 22/06 A3009 RMK AO2 SLP093 T02170056
KDEN 200553Z 21011KT 10SM FEW120 SCT220 23/06 A3010 RMK AO2 SLP094 T02280061 10339 20206 52005
KDEN 200653Z 25009KT 10SM FEW140 23/05 A3011 RMK AO2 SLP095 T02280050 403720161
KDEN 200753Z 25006KT 10SM FEW140 21/05 A3011 RMK AO2 SLP098 T02110050
KDEN 200853Z 24005KT 10SM FEW140 FEW220 20/06 A3012 RMK AO2 SLP103 T02000061 53007
KDEN 200953Z 27008KT 10SM FEW140 FEW220 19/09 A3013 RMK AO2 SLP104 T01940089
KDEN 201053Z 24007KT 10SM SCT140 SCT220 18/10 A3013 RMK AO2 SLP110 T01830100
KDEN 201153Z 24007KT 10SM SCT120 SCT220 18/07 A3014 RMK AO2 SLP114 T01780072 10250 20178 53004
KDEN 201253Z 24006KT 10SM SCT140 BKN220 19/06 A3015 RMK AO2 SLP119 T01890056
KDEN 201353Z 23006KT 10SM FEW140 SCT220 23/04 A3016 RMK AO2 SLP124 T02280044
KDEN 201453Z 23006KT 10SM FEW140 SCT220 27/06 A3017 RMK AO2 SLP125 T02670061 51010



Page loaded:  15:49 UTC  |   08:49 AM Pacific  |   09:49 AM Mountain  |   10:49 AM Central  |   11:49 AM Eastern

 

ADVISORIES

FORECASTS

FORECASTS

OBSERVATIONS

USER TOOLS

ABOUT US